Time;durP1;ratioP1;P1;durP2;ratioP2;P2;SDS_P1;SDS_P2;PMS_P1;PMS_P2;Temp;Humidity;BMP_temperature;BMP_pressure;BME280_temperature;BME280_humidity;BME280_pressure;Samples;Min_cycle;Max_cycle;Signal;HPM_P1;HPM_P2
2023/05/30 00:01:23;;;;;;;;;;;;;;;21.10;73.42;100653.28;7398295;19;1126;-48
2023/05/30 00:03:55;;;;;;;;;;;;;;;21.09;72.91;100650.75;7397211;19;2063;-49
2023/05/30 00:06:23;;;;;;;;;;;;;;;21.04;73.22;100630.53;7397250;19;1933;-48
2023/05/30 00:08:52;;;;;;;;;;;;;;;20.98;73.26;100644.59;7398025;19;1471;-47
2023/05/30 00:11:23;;;;;;;;;;;;;;;21.02;73.59;100651.38;7397928;19;1584;-48
2023/05/30 00:13:52;;;;;;;;;;;;;;;21.01;73.43;100641.63;7395539;19;1587;-48
2023/05/30 00:16:22;;;;;;;;;;;;;;;21.02;73.46;100640.59;7396897;19;1555;-48
2023/05/30 00:18:52;;;;;;;;;;;;;;;21.02;73.16;100642.47;7395446;19;1815;-49
2023/05/30 00:21:23;;;;;;;;;;;;;;;21.05;73.19;100645.69;7397185;19;1844;-49
2023/05/30 00:23:51;;;;;;;;;;;;;;;21.00;73.47;100636.38;7395700;19;1921;-48
2023/05/30 00:26:20;;;;;;;;;;;;;;;21.09;73.08;100642.69;7397714;19;1473;-49
2023/05/30 00:28:48;;;;;;;;;;;;;;;21.09;73.09;100650.75;7396662;19;1568;-49
2023/05/30 00:31:17;;;;;;;;;;;;;;;21.08;73.22;100655.28;7396599;19;1402;-49
2023/05/30 00:33:46;;;;;;;;;;;;;;;21.00;73.20;100647.97;7397702;19;1608;-48
2023/05/30 00:36:14;;;;;;;;;;;;;;;21.03;73.51;100646.84;7397308;19;1723;-48
2023/05/30 00:38:45;;;;;;;;;;;;;;;21.10;73.32;100647.09;7393360;19;1891;-48
2023/05/30 00:41:13;;;;;;;;;;;;;;;21.11;72.99;100632.63;7398109;19;1682;-48
2023/05/30 00:43:41;;;;;;;;;;;;;;;21.11;72.92;100644.25;7397171;19;1604;-49
2023/05/30 00:46:10;;;;;;;;;;;;;;;21.11;73.22;100643.38;7396409;19;1810;-49
2023/05/30 00:48:39;;;;;;;;;;;;;;;21.05;73.22;100629.56;7396758;19;1800;-48
2023/05/30 00:51:11;;;;;;;;;;;;;;;20.99;73.32;100638.25;7395145;19;1314;-49
2023/05/30 00:53:41;;;;;;;;;;;;;;;21.04;73.18;100646.69;7395183;19;1559;-48
2023/05/30 00:56:12;;;;;;;;;;;;;;;21.05;72.84;100637.63;7394113;19;1449;-49
2023/05/30 00:58:41;;;;;;;;;;;;;;;21.02;73.10;100637.09;7394297;19;1851;-48
2023/05/30 01:01:09;;;;;;;;;;;;;;;21.05;73.11;100648.38;7395543;19;1689;-49
2023/05/30 01:03:37;;;;;;;;;;;;;;;21.05;73.37;100652.94;7394871;19;1385;-48
2023/05/30 01:06:06;;;;;;;;;;;;;;;21.01;73.52;100651.53;7396906;19;992;-48
2023/05/30 01:08:34;;;;;;;;;;;;;;;21.03;73.28;100653.06;7395613;19;2177;-49
2023/05/30 01:11:08;;;;;;;;;;;;;;;21.03;73.13;100654.91;7397581;19;1735;-48
2023/05/30 01:13:44;;;;;;;;;;;;;;;20.99;73.36;100651.69;7395937;19;1445;-48
2023/05/30 01:16:15;;;;;;;;;;;;;;;21.03;73.07;100658.44;7395982;19;1481;-49
2023/05/30 01:18:47;;;;;;;;;;;;;;;21.00;73.34;100641.78;7394641;19;1853;-48
2023/05/30 01:21:19;;;;;;;;;;;;;;;20.99;73.20;100654.38;7395921;19;1568;-48
2023/05/30 01:23:55;;;;;;;;;;;;;;;20.97;73.06;100652.81;7394157;19;1505;-49
2023/05/30 01:26:29;;;;;;;;;;;;;;;20.97;73.14;100656.38;7395969;19;1758;-48
2023/05/30 01:29:02;;;;;;;;;;;;;;;20.95;73.30;100644.06;7395423;19;2212;-48
2023/05/30 01:31:30;;;;;;;;;;;;;;;20.93;73.19;100633.47;7395680;19;1864;-48
2023/05/30 01:33:59;;;;;;;;;;;;;;;20.97;73.44;100642.06;7395973;19;1295;-49
2023/05/30 01:36:28;;;;;;;;;;;;;;;20.98;73.13;100636.53;7395350;19;1331;-49
2023/05/30 01:38:56;;;;;;;;;;;;;;;20.99;73.17;100656.19;7393581;19;2009;-49
2023/05/30 01:41:31;;;;;;;;;;;;;;;20.95;73.42;100644.91;7394891;19;1266;-48
2023/05/30 01:44:06;;;;;;;;;;;;;;;20.97;73.19;100640.25;7394715;19;1294;-48
2023/05/30 01:46:35;;;;;;;;;;;;;;;20.98;73.11;100638.38;7394024;19;1590;-49
2023/05/30 01:49:08;;;;;;;;;;;;;;;20.94;73.41;100648.59;7395443;19;1556;-49
2023/05/30 01:51:39;;;;;;;;;;;;;;;20.99;72.96;100646.31;7394586;19;1370;-48
2023/05/30 01:54:10;;;;;;;;;;;;;;;20.98;73.24;100644.59;7393847;19;1402;-48
2023/05/30 01:56:39;;;;;;;;;;;;;;;20.97;73.27;100648.31;7393235;19;1387;-49
2023/05/30 01:59:11;;;;;;;;;;;;;;;20.97;73.27;100645.63;7392143;19;1849;-49
2023/05/30 02:01:40;;;;;;;;;;;;;;;21.00;73.38;100641.78;7395802;19;1817;-49
2023/05/30 02:04:08;;;;;;;;;;;;;;;20.95;73.21;100666.44;7395122;19;1719;-49
2023/05/30 02:06:37;;;;;;;;;;;;;;;20.91;73.68;100659.66;7394039;19;1805;-49
2023/05/30 02:09:06;;;;;;;;;;;;;;;20.94;73.45;100653.97;7396225;19;1529;-49
2023/05/30 02:11:34;;;;;;;;;;;;;;;20.95;73.30;100650.28;7395052;19;1513;-48
2023/05/30 02:14:03;;;;;;;;;;;;;;;20.93;73.32;100660.34;7394769;19;1504;-49
2023/05/30 02:16:34;;;;;;;;;;;;;;;20.91;73.49;100661.47;7401977;19;1841;-53
2023/05/30 02:19:02;;;;;;;;;;;;;;;20.95;73.03;100661.03;7400998;19;1834;-49
2023/05/30 02:21:30;;;;;;;;;;;;;;;20.92;73.45;100688.22;7400712;19;1602;-49
2023/05/30 02:23:58;;;;;;;;;;;;;;;20.92;73.42;100666.72;7400930;19;1606;-49
2023/05/30 02:26:27;;;;;;;;;;;;;;;20.88;73.75;100661.78;7401100;19;1201;-48
2023/05/30 02:28:55;;;;;;;;;;;;;;;20.91;73.30;100667.72;7401304;19;1251;-49
2023/05/30 02:31:24;;;;;;;;;;;;;;;20.93;73.17;100671.09;7400358;19;1219;-48
2023/05/30 02:33:55;;;;;;;;;;;;;;;20.85;73.56;100668.31;7401490;19;1070;-48
2023/05/30 02:36:23;;;;;;;;;;;;;;;20.89;73.43;100658.97;7401235;19;1529;-48
2023/05/30 02:38:51;;;;;;;;;;;;;;;20.88;73.50;100659.09;7399222;19;1943;-49
2023/05/30 02:41:20;;;;;;;;;;;;;;;20.85;73.91;100652.19;7400085;19;1817;-49
2023/05/30 02:43:48;;;;;;;;;;;;;;;20.89;73.57;100671.53;7399729;19;1437;-50
2023/05/30 02:46:16;;;;;;;;;;;;;;;20.84;73.83;100653.19;7401546;19;1379;-48
2023/05/30 02:48:44;;;;;;;;;;;;;;;20.90;73.51;100668.72;7400826;19;1832;-49
2023/05/30 02:51:15;;;;;;;;;;;;;;;20.88;73.58;100665.31;7397591;19;1603;-51
2023/05/30 02:53:43;;;;;;;;;;;;;;;20.82;73.37;100665.94;7400953;19;1390;-49
2023/05/30 02:56:12;;;;;;;;;;;;;;;20.87;73.60;100671.72;7401192;19;1589;-54
2023/05/30 02:58:40;;;;;;;;;;;;;;;20.86;73.69;100680.75;7401140;19;1861;-49
2023/05/30 03:01:08;;;;;;;;;;;;;;;20.90;73.71;100663.31;7400515;19;1497;-49
2023/05/30 03:03:37;;;;;;;;;;;;;;;20.87;73.47;100674.41;7399963;19;1916;-49
2023/05/30 03:06:06;;;;;;;;;;;;;;;20.88;73.80;100668.00;7399228;19;1715;-49
2023/05/30 03:08:38;;;;;;;;;;;;;;;20.91;73.25;100672.22;7398814;19;1553;-49
2023/05/30 03:11:06;;;;;;;;;;;;;;;20.91;73.32;100673.09;7399693;19;1535;-49
2023/05/30 03:13:34;;;;;;;;;;;;;;;20.90;73.23;100663.31;7399074;19;1541;-49
2023/05/30 03:16:03;;;;;;;;;;;;;;;20.90;73.09;100679.47;7398291;19;1440;-49
2023/05/30 03:18:31;;;;;;;;;;;;;;;20.89;73.42;100688.53;7398337;19;1861;-49
2023/05/30 03:20:59;;;;;;;;;;;;;;;20.86;73.21;100686.13;7397937;19;1185;-48
2023/05/30 03:23:27;;;;;;;;;;;;;;;20.94;73.36;100690.75;7398803;19;1244;-49
2023/05/30 03:25:58;;;;;;;;;;;;;;;20.92;73.55;100680.16;7398910;19;1683;-52
2023/05/30 03:28:27;;;;;;;;;;;;;;;20.93;73.25;100695.31;7400025;19;1592;-49
2023/05/30 03:30:56;;;;;;;;;;;;;;;20.98;72.99;100698.38;7399609;19;1751;-48
2023/05/30 03:33:28;;;;;;;;;;;;;;;20.88;73.41;100697.56;7400268;19;1529;-50
2023/05/30 03:35:56;;;;;;;;;;;;;;;20.89;73.33;100699.28;7399707;19;2078;-50
2023/05/30 03:38:24;;;;;;;;;;;;;;;20.94;73.03;100701.50;7397287;19;1547;-50
2023/05/30 03:40:53;;;;;;;;;;;;;;;20.98;72.96;100698.38;7398638;19;1671;-50
2023/05/30 03:43:23;;;;;;;;;;;;;;;20.93;73.31;100707.88;7397343;19;1326;-49
2023/05/30 03:45:52;;;;;;;;;;;;;;;20.98;73.19;100717.19;7398150;19;1837;-49
2023/05/30 03:48:20;;;;;;;;;;;;;;;21.00;73.02;100715.19;7399008;19;1990;-49
2023/05/30 03:50:48;;;;;;;;;;;;;;;20.97;73.20;100711.94;7398531;19;1566;-49
2023/05/30 03:53:17;;;;;;;;;;;;;;;20.93;73.01;100722.19;7398166;19;1668;-49
2023/05/30 03:55:45;;;;;;;;;;;;;;;20.91;73.20;100713.41;7399748;19;1754;-48
2023/05/30 03:58:13;;;;;;;;;;;;;;;20.95;73.33;100725.56;7399228;19;1097;-49
2023/05/30 04:00:44;;;;;;;;;;;;;;;20.90;73.66;100721.63;7396344;19;1852;-48
2023/05/30 04:03:13;;;;;;;;;;;;;;;20.94;73.61;100721.16;7397071;19;1288;-49
2023/05/30 04:05:41;;;;;;;;;;;;;;;20.93;73.15;100727.56;7396752;19;1620;-49
2023/05/30 04:08:09;;;;;;;;;;;;;;;20.93;73.10;100724.00;7395540;19;1287;-49
2023/05/30 04:10:37;;;;;;;;;;;;;;;20.75;74.22;100724.81;7397920;19;1314;-49
2023/05/30 04:13:06;;;;;;;;;;;;;;;20.55;74.29;100726.69;7396884;19;1808;-49
2023/05/30 04:15:35;;;;;;;;;;;;;;;20.89;73.47;100726.16;7397767;19;1722;-49
2023/05/30 04:18:05;;;;;;;;;;;;;;;20.75;73.95;100730.19;7397786;19;1759;-49
2023/05/30 04:20:35;;;;;;;;;;;;;;;20.90;73.55;100733.22;7395731;19;1853;-48
2023/05/30 04:23:03;;;;;;;;;;;;;;;20.93;73.56;100743.69;7394958;19;1339;-49
2023/05/30 04:25:31;;;;;;;;;;;;;;;20.85;73.69;100740.91;7394571;19;1290;-49
2023/05/30 04:27:59;;;;;;;;;;;;;;;20.76;74.54;100741.78;7395714;19;1611;-50
2023/05/30 04:30:28;;;;;;;;;;;;;;;20.65;74.40;100740.97;7391513;19;1624;-49
2023/05/30 04:32:57;;;;;;;;;;;;;;;20.55;75.82;100745.50;7392123;19;1671;-50
2023/05/30 04:35:28;;;;;;;;;;;;;;;20.51;75.62;100733.31;7395461;19;1259;-50
2023/05/30 04:37:56;;;;;;;;;;;;;;;20.43;76.29;100736.78;7387874;19;1509;-50
2023/05/30 04:40:25;;;;;;;;;;;;;;;20.68;75.46;100731.75;7390234;19;1862;-48
2023/05/30 04:42:53;;;;;;;;;;;;;;;20.54;75.87;100730.38;7395671;19;1905;-48
2023/05/30 04:45:28;;;;;;;;;;;;;;;20.48;76.25;100740.84;7395876;19;1595;-49
2023/05/30 04:47:57;;;;;;;;;;;;;;;20.46;75.88;100743.69;7395106;19;1202;-48
2023/05/30 04:50:29;;;;;;;;;;;;;;;20.49;76.01;100750.59;7395917;19;1177;-48
2023/05/30 04:52:57;;;;;;;;;;;;;;;20.46;75.96;100746.38;7395559;19;1502;-48
2023/05/30 04:55:26;;;;;;;;;;;;;;;20.45;76.09;100756.28;7393377;19;1281;-48
2023/05/30 04:57:54;;;;;;;;;;;;;;;20.46;75.96;100757.94;7391536;19;1391;-48
2023/05/30 05:00:23;;;;;;;;;;;;;;;20.82;74.44;100754.63;7395034;19;1845;-48
2023/05/30 05:02:51;;;;;;;;;;;;;;;20.65;75.37;100746.34;7397224;19;1853;-48
2023/05/30 05:05:20;;;;;;;;;;;;;;;20.88;74.90;100751.34;7395633;19;1865;-48
2023/05/30 05:07:50;;;;;;;;;;;;;;;20.74;75.80;100759.88;7395665;19;1622;-48
2023/05/30 05:10:19;;;;;;;;;;;;;;;20.65;75.50;100751.72;7391389;19;1404;-48
2023/05/30 05:12:47;;;;;;;;;;;;;;;20.63;76.14;100753.69;7390901;19;1731;-48
2023/05/30 05:15:16;;;;;;;;;;;;;;;20.61;75.94;100765.56;7391963;19;1339;-48
2023/05/30 05:17:44;;;;;;;;;;;;;;;20.61;76.00;100760.19;7392415;19;1817;-47
2023/05/30 05:20:13;;;;;;;;;;;;;;;20.57;75.83;100754.25;7393468;19;1859;-47
2023/05/30 05:22:41;;;;;;;;;;;;;;;20.63;75.66;100760.91;7392616;19;1407;-48
2023/05/30 05:25:12;;;;;;;;;;;;;;;20.64;75.20;100758.06;7390468;19;1126;-48
2023/05/30 05:27:41;;;;;;;;;;;;;;;20.73;75.26;100767.09;7391255;19;1157;-48
2023/05/30 05:30:10;;;;;;;;;;;;;;;20.81;75.17;100744.84;7390684;19;1566;-47
2023/05/30 05:32:39;;;;;;;;;;;;;;;20.89;74.50;100760.25;7388069;19;1589;-47
2023/05/30 05:35:07;;;;;;;;;;;;;;;20.94;74.37;100761.50;7390664;19;1256;-49
2023/05/30 05:37:36;;;;;;;;;;;;;;;21.08;74.01;100775.44;7388579;19;2389;-48
2023/05/30 05:40:08;;;;;;;;;;;;;;;21.04;73.84;100762.28;7394981;19;1846;-48
2023/05/30 05:42:38;;;;;;;;;;;;;;;21.02;73.82;100775.03;7396444;19;1829;-47
2023/05/30 05:45:07;;;;;;;;;;;;;;;21.02;74.02;100769.66;7396133;19;1865;-48
2023/05/30 05:47:35;;;;;;;;;;;;;;;21.04;74.15;100770.34;7395271;19;1877;-48
2023/05/30 05:50:04;;;;;;;;;;;;;;;21.07;73.68;100766.53;7399228;19;1477;-48
2023/05/30 05:52:32;;;;;;;;;;;;;;;20.98;74.36;100784.38;7402225;19;1386;-50
2023/05/30 05:55:01;;;;;;;;;;;;;;;21.05;73.86;100780.13;7402267;19;1259;-49
2023/05/30 05:57:29;;;;;;;;;;;;;;;21.12;73.66;100766.09;7401309;19;1715;-49
2023/05/30 06:00:00;;;;;;;;;;;;;;;21.29;72.81;100765.28;7399590;19;1869;-49
2023/05/30 06:02:28;;;;;;;;;;;;;;;21.36;72.73;100771.75;7399906;19;1719;-48
2023/05/30 06:04:56;;;;;;;;;;;;;;;21.22;73.08;100774.94;7401997;19;1515;-48
2023/05/30 06:07:25;;;;;;;;;;;;;;;21.06;73.43;100773.75;7400471;19;1538;-49
2023/05/30 06:09:53;;;;;;;;;;;;;;;21.21;73.02;100774.09;7401198;19;1267;-48
2023/05/30 06:12:21;;;;;;;;;;;;;;;21.08;73.34;100776.28;7399163;19;1516;-48
2023/05/30 06:14:49;;;;;;;;;;;;;;;21.11;73.23;100776.00;7402347;19;1125;-48
2023/05/30 06:17:20;;;;;;;;;;;;;;;21.19;72.75;100775.25;7401204;19;1516;-49
2023/05/30 06:19:49;;;;;;;;;;;;;;;21.19;73.16;100781.47;7400658;19;1873;-49
2023/05/30 06:22:17;;;;;;;;;;;;;;;21.23;72.66;100779.34;7401168;19;1900;-49
2023/05/30 06:24:46;;;;;;;;;;;;;;;21.21;72.83;100778.66;7399877;19;1389;-53
2023/05/30 06:27:15;;;;;;;;;;;;;;;21.18;72.56;100784.31;7400712;19;1529;-48
2023/05/30 06:29:43;;;;;;;;;;;;;;;21.26;72.54;100779.03;7397499;19;1452;-48
2023/05/30 06:32:11;;;;;;;;;;;;;;;21.19;72.09;100792.22;7398373;19;1292;-47
2023/05/30 06:34:42;;;;;;;;;;;;;;;21.20;72.36;100785.00;7397077;19;1551;-47
2023/05/30 06:37:11;;;;;;;;;;;;;;;21.32;71.91;100791.88;7383716;19;1372;-47
2023/05/30 06:39:39;;;;;;;;;;;;;;;21.36;71.84;100781.66;7393145;19;1859;-47
2023/05/30 06:42:08;;;;;;;;;;;;;;;21.35;71.78;100780.81;7397733;19;1398;-47
2023/05/30 06:44:36;;;;;;;;;;;;;;;21.28;72.12;100779.72;7398797;19;1867;-47
2023/05/30 06:47:05;;;;;;;;;;;;;;;21.25;71.98;100780.03;7395599;19;1225;-47
2023/05/30 06:49:33;;;;;;;;;;;;;;;21.06;72.99;100780.97;7396164;19;1617;-48
2023/05/30 06:52:04;;;;;;;;;;;;;;;21.24;72.28;100781.03;7397866;19;1592;-47
2023/05/30 06:54:32;;;;;;;;;;;;;;;21.42;71.90;100781.91;7398658;19;1742;-48
2023/05/30 06:57:04;;;;;;;;;;;;;;;21.61;71.12;100777.44;7398608;19;1487;-47
2023/05/30 06:59:33;;;;;;;;;;;;;;;21.42;71.90;100781.91;7393002;19;1235;-46
2023/05/30 07:02:02;;;;;;;;;;;;;;;21.28;72.52;100779.72;7397442;19;1498;-46
2023/05/30 07:04:30;;;;;;;;;;;;;;;21.36;72.42;100782.50;7397011;19;1457;-50
2023/05/30 07:06:58;;;;;;;;;;;;;;;21.51;71.80;100774.81;7398910;19;1801;-49
2023/05/30 07:09:29;;;;;;;;;;;;;;;21.46;72.08;100787.84;7399994;19;1086;-49
2023/05/30 07:11:57;;;;;;;;;;;;;;;21.34;73.05;100787.19;7396995;19;1853;-49
2023/05/30 07:14:26;;;;;;;;;;;;;;;21.26;73.57;100782.56;7394069;19;1603;-49
2023/05/30 07:16:54;;;;;;;;;;;;;;;21.44;72.62;100785.31;7395291;19;1839;-49
2023/05/30 07:19:23;;;;;;;;;;;;;;;21.37;72.87;100799.50;7398302;19;1688;-49
2023/05/30 07:21:51;;;;;;;;;;;;;;;21.28;73.18;100787.78;7391055;19;1845;-49
2023/05/30 07:24:19;;;;;;;;;;;;;;;21.36;72.77;100793.25;7390550;19;1375;-49
2023/05/30 07:26:51;;;;;;;;;;;;;;;21.31;73.03;100798.25;7391940;19;1451;-49
2023/05/30 07:29:19;;;;;;;;;;;;;;;21.19;73.70;100791.41;7392634;19;1437;-49
2023/05/30 07:31:48;;;;;;;;;;;;;;;21.24;73.79;100794.47;7395835;19;1315;-49
2023/05/30 07:34:16;;;;;;;;;;;;;;;21.32;73.22;100786.50;7398593;19;1537;-49
2023/05/30 07:36:45;;;;;;;;;;;;;;;21.39;73.06;100809.13;7398107;19;1941;-50
2023/05/30 07:39:13;;;;;;;;;;;;;;;21.33;72.94;100793.56;7395312;19;1462;-49
2023/05/30 07:41:41;;;;;;;;;;;;;;;21.49;72.50;100797.47;7393796;19;1883;-49
2023/05/30 07:44:12;;;;;;;;;;;;;;;21.36;73.12;100787.88;7396381;19;1264;-49
2023/05/30 07:46:40;;;;;;;;;;;;;;;21.33;73.38;100788.19;7394976;19;1274;-49
2023/05/30 07:49:10;;;;;;;;;;;;;;;21.33;73.29;100798.97;7395128;19;1630;-49
2023/05/30 07:51:38;;;;;;;;;;;;;;;21.33;74.36;100801.66;7393888;19;1293;-49
2023/05/30 07:54:06;;;;;;;;;;;;;;;21.45;73.24;100792.41;7329545;19;12863;-50
2023/05/30 07:56:36;;;;;;;;;;;;;;;21.55;73.20;100791.50;7395076;19;1776;-49
2023/05/30 07:59:04;;;;;;;;;;;;;;;21.45;73.91;100805.84;7395605;19;1301;-49
2023/05/30 08:01:35;;;;;;;;;;;;;;;21.44;73.54;100798.75;7396011;19;1843;-50
2023/05/30 08:04:03;;;;;;;;;;;;;;;21.55;73.22;100795.03;7393652;19;1352;-50
2023/05/30 08:06:33;;;;;;;;;;;;;;;21.67;72.55;100808.28;7393880;19;1048;-50
2023/05/30 08:09:01;;;;;;;;;;;;;;;21.61;72.49;100786.34;7395970;19;1911;-49
2023/05/30 08:11:30;;;;;;;;;;;;;;;21.44;73.72;100796.06;7393983;19;1901;-49
2023/05/30 08:13:58;;;;;;;;;;;;;;;21.40;74.44;100800.03;7397502;19;1715;-49
2023/05/30 08:16:26;;;;;;;;;;;;;;;21.28;74.89;100793.16;7395610;19;1769;-49
2023/05/30 08:18:57;;;;;;;;;;;;;;;21.28;75.09;100784.25;7395218;19;1719;-52
2023/05/30 08:21:26;;;;;;;;;;;;;;;21.24;75.09;100786.41;7384297;19;1952;-49
2023/05/30 08:23:55;;;;;;;;;;;;;;;21.32;75.42;100789.19;7393683;19;1789;-49
2023/05/30 08:26:25;;;;;;;;;;;;;;;21.35;74.75;100791.59;7393207;19;1547;-49
2023/05/30 08:28:53;;;;;;;;;;;;;;;21.33;74.96;100793.56;7393303;19;1727;-48
2023/05/30 08:31:21;;;;;;;;;;;;;;;21.54;74.39;100790.63;7394319;19;1484;-49
2023/05/30 08:33:49;;;;;;;;;;;;;;;21.49;74.64;100782.19;7394739;19;1307;-48
2023/05/30 08:36:21;;;;;;;;;;;;;;;21.55;73.81;100781.56;7396127;19;1017;-48
2023/05/30 08:38:53;;;;;;;;;;;;;;;21.46;74.60;100790.53;7393596;19;1625;-48
2023/05/30 08:41:22;;;;;;;;;;;;;;;21.53;74.17;100777.34;7394970;19;1861;-48
2023/05/30 08:43:51;;;;;;;;;;;;;;;21.65;73.55;100781.50;7385110;19;1714;-48
2023/05/30 08:46:19;;;;;;;;;;;;;;;21.59;73.25;100772.19;7383337;19;1330;-49
2023/05/30 08:48:48;;;;;;;;;;;;;;;21.54;73.59;100773.66;7393596;19;1759;-49
2023/05/30 08:51:17;;;;;;;;;;;;;;;21.50;74.03;100780.34;7394549;19;1721;-49
2023/05/30 08:53:53;;;;;;;;;;;;;;;21.47;74.01;100786.00;7392939;19;1212;-49
2023/05/30 08:56:26;;;;;;;;;;;;;;;21.59;73.52;100782.13;7392061;19;1471;-48
2023/05/30 08:58:55;;;;;;;;;;;;;;;21.48;74.46;100790.41;7392774;19;1534;-48
2023/05/30 09:01:24;;;;;;;;;;;;;;;21.51;73.49;100787.44;7392694;19;1845;-49
2023/05/30 09:03:53;;;;;;;;;;;;;;;21.51;73.94;100782.88;7395773;19;1031;-48
2023/05/30 09:06:21;;;;;;;;;;;;;;;21.48;74.27;100790.41;7395017;19;1577;-48
2023/05/30 09:08:54;;;;;;;;;;;;;;;21.45;74.25;100783.50;7392416;19;1474;-48
2023/05/30 09:11:22;;;;;;;;;;;;;;;21.49;73.77;100784.88;7394671;19;1739;-48
2023/05/30 09:13:52;;;;;;;;;;;;;;;21.47;74.29;100794.06;7394182;19;2082;-48
2023/05/30 09:16:21;;;;;;;;;;;;;;;21.38;74.33;100790.44;7392630;19;1789;-48
2023/05/30 09:18:49;;;;;;;;;;;;;;;21.35;74.96;100788.88;7391673;19;1589;-48
2023/05/30 09:21:17;;;;;;;;;;;;;;;21.54;74.45;100795.19;7388734;19;1863;-48
2023/05/30 09:23:46;;;;;;;;;;;;;;;21.55;74.40;100786.13;7383812;19;1260;-48
2023/05/30 09:26:18;;;;;;;;;;;;;;;21.52;74.28;100803.41;7401387;19;1778;-48
2023/05/30 09:28:48;;;;;;;;;;;;;;;21.52;74.45;100798.00;7400254;19;1477;-48
2023/05/30 09:31:17;;;;;;;;;;;;;;;21.46;74.81;100787.84;7399171;19;1426;-48
2023/05/30 09:33:47;;;;;;;;;;;;;;;21.53;74.23;100790.81;7398591;19;1710;-49
2023/05/30 09:36:18;;;;;;;;;;;;;;;21.48;74.35;100787.72;7400995;19;1021;-49
2023/05/30 09:38:54;;;;;;;;;;;;;;;21.54;74.15;100781.72;7399332;19;1552;-49
2023/05/30 09:41:25;;;;;;;;;;;;;;;21.57;74.15;100800.28;7399677;19;1845;-48
2023/05/30 09:43:54;;;;;;;;;;;;;;;21.57;74.11;100786.81;7398081;19;1477;-49
2023/05/30 09:46:23;;;;;;;;;;;;;;;21.56;74.21;100785.09;7399660;19;1849;-48
2023/05/30 09:48:52;;;;;;;;;;;;;;;21.55;74.33;100786.13;7400098;19;1663;-49
2023/05/30 09:51:21;;;;;;;;;;;;;;;21.45;74.45;100778.94;7397479;19;1592;-49
2023/05/30 09:53:57;;;;;;;;;;;;;;;21.44;74.55;100781.78;7399073;19;1794;-49
2023/05/30 09:56:40;;;;;;;;;;;;;;;21.38;75.06;100775.13;7398822;19;1480;-49
2023/05/30 09:59:13;;;;;;;;;;;;;;;21.38;75.28;100768.91;7397416;19;1685;-48
2023/05/30 10:01:42;;;;;;;;;;;;;;;21.56;74.18;100769.78;7396116;19;1894;-48
2023/05/30 10:04:14;;;;;;;;;;;;;;;21.62;74.16;100761.13;7393437;19;1649;-49
2023/05/30 10:06:43;;;;;;;;;;;;;;;21.53;74.67;100771.97;7394834;19;1529;-48
2023/05/30 10:09:12;;;;;;;;;;;;;;;21.49;74.53;100759.78;7400257;19;1074;-49
2023/05/30 10:11:41;;;;;;;;;;;;;;;21.53;74.51;100745.91;7399312;19;1950;-48
2023/05/30 10:14:12;;;;;;;;;;;;;;;21.47;74.59;100742.97;7398699;19;1207;-48
2023/05/30 10:16:43;;;;;;;;;;;;;;;21.50;74.46;100739.97;7397063;19;1685;-48
2023/05/30 10:19:15;;;;;;;;;;;;;;;21.50;74.24;100743.50;7398608;19;1565;-49
2023/05/30 10:21:44;;;;;;;;;;;;;;;21.55;74.20;100743.91;7396428;19;1845;-49
2023/05/30 10:24:16;;;;;;;;;;;;;;;21.60;74.10;100729.97;7397250;19;1806;-48
2023/05/30 10:26:49;;;;;;;;;;;;;;;21.54;74.04;100730.59;7399320;19;1559;-48
2023/05/30 10:29:22;;;;;;;;;;;;;;;21.69;74.06;100745.22;7400027;19;1786;-48
2023/05/30 10:31:53;;;;;;;;;;;;;;;21.72;73.65;100744.91;7393260;19;1022;-49
2023/05/30 10:34:24;;;;;;;;;;;;;;;21.67;73.96;100738.31;7393181;19;1577;-49
2023/05/30 10:36:53;;;;;;;;;;;;;;;21.60;74.17;100738.88;7395397;19;1492;-48
2023/05/30 10:39:30;;;;;;;;;;;;;;;21.55;74.19;100737.69;7398969;19;1375;-49
2023/05/30 10:42:03;;;;;;;;;;;;;;;21.55;74.28;100746.59;7395001;19;1855;-49
2023/05/30 10:44:41;;;;;;;;;;;;;;;21.75;73.48;100743.75;7398823;19;1521;-49
2023/05/30 10:47:18;;;;;;;;;;;;;;;21.76;73.35;100735.50;7398880;19;1295;-50
2023/05/30 10:49:47;;;;;;;;;;;;;;;21.54;73.92;100733.28;7398624;19;1410;-49
2023/05/30 10:52:17;;;;;;;;;;;;;;;21.52;74.59;100728.06;7397772;19;1920;-49
2023/05/30 10:54:46;;;;;;;;;;;;;;;21.58;74.45;100727.44;7397503;19;1532;-49
2023/05/30 10:57:27;;;;;;;;;;;;;;;21.68;74.47;100731.91;7398155;19;1220;-49
2023/05/30 11:00:08;;;;;;;;;;;;;;;21.75;73.80;100731.13;7397990;19;1438;-50
2023/05/30 11:02:37;;;;;;;;;;;;;;;21.68;74.95;100732.75;7395324;19;1864;-48
2023/05/30 11:05:08;;;;;;;;;;;;;;;21.64;75.03;100720.59;7396166;19;1320;-49
2023/05/30 11:07:38;;;;;;;;;;;;;;;21.84;74.68;100730.22;7395483;19;1213;-49
2023/05/30 11:10:07;;;;;;;;;;;;;;;21.74;74.97;100747.44;7395880;19;1161;-49
2023/05/30 11:12:41;;;;;;;;;;;;;;;21.82;74.73;100713.34;7397708;19;1326;-49
2023/05/30 11:15:16;;;;;;;;;;;;;;;21.92;74.30;100715.97;7396996;19;1587;-48
2023/05/30 11:17:44;;;;;;;;;;;;;;;21.79;75.37;100702.06;7398277;19;1504;-50
2023/05/30 11:20:16;;;;;;;;;;;;;;;21.58;76.06;100702.38;7397591;19;1569;-50
2023/05/30 11:23:04;;;;;;;;;;;;;;;21.47;76.84;100697.22;7394046;19;1834;-49
2023/05/30 11:25:33;;;;;;;;;;;;;;;21.43;76.59;100704.78;7392671;19;1953;-48
2023/05/30 11:28:16;;;;;;;;;;;;;;;21.38;76.06;100705.19;7392096;19;1050;-49
2023/05/30 11:30:51;;;;;;;;;;;;;;;21.39;75.66;100698.81;7393572;19;1584;-49
2023/05/30 11:33:19;;;;;;;;;;;;;;;21.40;75.16;100691.59;7390151;19;1468;-52
2023/05/30 11:35:48;;;;;;;;;;;;;;;21.41;74.91;100683.38;7392382;19;1016;-48
2023/05/30 11:38:20;;;;;;;;;;;;;;;21.36;74.82;100684.81;7387883;19;1857;-49
2023/05/30 11:40:50;;;;;;;;;;;;;;;21.35;73.84;100678.59;7391911;19;1477;-49
2023/05/30 11:43:19;;;;;;;;;;;;;;;21.28;74.48;100674.00;7390988;19;1854;-48
2023/05/30 11:45:50;;;;;;;;;;;;;;;21.32;72.78;100676.22;7392680;19;1988;-49
2023/05/30 11:48:21;;;;;;;;;;;;;;;21.32;72.70;100678.91;7396320;19;1222;-49
2023/05/30 11:50:49;;;;;;;;;;;;;;;21.29;73.52;100678.34;7398310;19;1178;-49
2023/05/30 11:53:19;;;;;;;;;;;;;;;21.37;72.68;100660.47;7397022;19;1821;-49
2023/05/30 11:55:47;;;;;;;;;;;;;;;21.33;73.09;100669.84;7397547;19;1249;-49
2023/05/30 11:58:16;;;;;;;;;;;;;;;21.34;72.25;100676.91;7396898;19;1462;-49
2023/05/30 12:00:45;;;;;;;;;;;;;;;21.25;72.12;100657.16;7396765;19;1282;-49
2023/05/30 12:03:16;;;;;;;;;;;;;;;21.23;72.64;100655.63;7394108;19;1865;-49
2023/05/30 12:05:48;;;;;;;;;;;;;;;21.27;71.78;100675.84;7397992;19;1165;-48
2023/05/30 12:08:16;;;;;;;;;;;;;;;21.32;71.77;100670.81;7396016;19;1244;-49
2023/05/30 12:10:45;;;;;;;;;;;;;;;21.36;71.50;100650.69;7397306;19;1536;-48
2023/05/30 12:13:13;;;;;;;;;;;;;;;21.36;71.24;100661.44;7396398;19;1735;-48
2023/05/30 12:15:41;;;;;;;;;;;;;;;21.36;71.80;100656.06;7396697;19;1379;-48
2023/05/30 12:18:10;;;;;;;;;;;;;;;21.41;71.59;100667.22;7394943;19;1427;-48
2023/05/30 12:20:44;;;;;;;;;;;;;;;21.34;71.87;100652.69;7397868;19;1402;-49
2023/05/30 12:23:15;;;;;;;;;;;;;;;21.33;71.52;100647.47;7395253;19;1851;-49
2023/05/30 12:25:51;;;;;;;;;;;;;;;21.45;71.09;100639.06;7397416;19;1395;-49
2023/05/30 12:28:19;;;;;;;;;;;;;;;21.42;70.59;100631.25;7397490;19;1023;-48
2023/05/30 12:30:47;;;;;;;;;;;;;;;21.35;71.20;100638.25;7395424;19;1597;-49
2023/05/30 12:33:16;;;;;;;;;;;;;;;21.21;70.88;100634.25;7395953;19;1741;-48
2023/05/30 12:35:44;;;;;;;;;;;;;;;21.33;70.64;100637.56;7398235;19;969;-48
2023/05/30 12:38:16;;;;;;;;;;;;;;;21.35;70.26;100643.63;7395509;19;1860;-49
2023/05/30 12:40:45;;;;;;;;;;;;;;;21.30;70.49;100643.25;7396530;19;1791;-48
2023/05/30 12:43:14;;;;;;;;;;;;;;;21.33;69.90;100642.06;7393386;19;1853;-49
2023/05/30 12:45:45;;;;;;;;;;;;;;;21.15;70.13;100636.69;7396080;19;1616;-48
2023/05/30 12:48:13;;;;;;;;;;;;;;;21.21;70.69;100611.91;7395366;19;1291;-48
2023/05/30 12:50:41;;;;;;;;;;;;;;;21.11;71.05;100632.63;7395273;19;1431;-48
2023/05/30 12:53:10;;;;;;;;;;;;;;;21.11;70.82;100638.88;7395293;19;1167;-49
2023/05/30 12:55:41;;;;;;;;;;;;;;;21.16;70.32;100625.78;7395724;19;1217;-48
2023/05/30 12:58:09;;;;;;;;;;;;;;;21.24;70.40;100627.72;7395480;19;1079;-48
2023/05/30 13:00:38;;;;;;;;;;;;;;;21.17;71.00;100637.38;7395740;19;1486;-49